Terminal Aerodrome Forecast
Issued by NWS Mobile, AL

Home | Current Version | Previous Version | Text Only | Print | Product List | Glossary On
Versions: 1 2 3 4 5 6 7 8 9 10 11 12
000
FTUS44 KMOB 271120
TAFPNS
TAF
KPNS 271120Z 2712/2812 06004KT P6SM BKN250
     FM271500 16014G20KT P6SM SCT050 SCT100 BKN250
     FM272300 15008KT P6SM BKN250
     FM280600 11004KT P6SM SCT250=

USA.gov is the U.S. government's official web portal to all federal, state and local government web resources and services.